Airfield :
LOGIN :

Register | Disclaimer

   EN    FR    IT 

 










Legend :    VFR   Marginal VFR   IFR   Intensive IFR   Very Intensive IFR
Visi :
Ceiling :
>= 8 km
>= 3000ft
5 to 8 km
1000 to 3000 ft
1500m to 5 km
500 to 1000 ft
800 to 1500m
200 to 500 ft
< 800m
< 200 ft
Symbols :   Thunderstorms  Fog  Heavy snow  Heavy precipitations  Wind > 20 kt
SIGMETs :     Misc.  Thunderstorms  Icing  Turbulence  Mountain Waves  Volcanic Ashes






- Airport Elevation : 512 ft
- IATA code : URO


LFOP - Rouen Vallée de Seine

CURRENT METAR :
  • 030900Z AUTO 25005KT 210V320 9999 FEW029 BKN042 18/09 Q1021 NOSIG

EXPIRED METARs :
  • 030830Z AUTO 30006KT 260V340 9999 SCT027 BKN034 BKN041 17/09 Q1021 NOSIG
  • 030800Z AUTO 29008KT 250V330 9999 SCT022 SCT027 16/10 Q1021 NOSIG
  • 030730Z AUTO 27007KT 240V300 9999 BKN018 BKN026 BKN036 15/11 Q1021 NOSIG
  • 030700Z AUTO 28007KT 9999 FEW011 SCT017 15/11 Q1021 TEMPO BKN014
  • 030630Z AUTO 24004KT 200V290 9999 BKN015 14/12 Q1021 TEMPO BKN014

TAF TAF LFOP
Valid from the 03 at 06:00 until the 04 at 06:00 UTC


030500Z 0306/0406 28008KT 9999 BKN030
TEMPO 0306/0308 BKN014
BECMG 0400/0403 3000 BR
PROB30 0403/0406 0300 FG VV///
ATIS : +33 2 35 80 80 34
Met : +33 2 32 86 52 80



MET'MAP, your aeronautical weather chart ! - Copyright ORBIFLY December 2007 - Disclaimer

ORBIFLY MET'MAP TEAM :

Programming & Development : Alexandra Zaïnal
Original concept : Baudouin d'Aumeries
Technical & hardware support : Manuel Goepfert
Assistance : Marc-Olivier Méhu




SOURCES & CREDITS :

   NOAA